createdAt,value
2018-09-27T00:00:37.212Z,12.59
2018-09-27T00:03:06.675Z,12.52
2018-09-27T00:05:36.251Z,12.52
2018-09-27T00:08:05.782Z,12.55
2018-09-27T00:10:35.258Z,12.59
2018-09-27T00:13:04.729Z,12.48
2018-09-27T00:15:34.148Z,12.47
2018-09-27T00:18:03.877Z,12.47
2018-09-27T00:20:33.482Z,12.60
2018-09-27T00:23:02.957Z,12.61
2018-09-27T00:25:32.362Z,12.62
2018-09-27T00:28:02.098Z,12.66
2018-09-27T00:30:31.703Z,12.46
2018-09-27T00:33:01.309Z,12.41
2018-09-27T00:35:30.915Z,12.68
2018-09-27T00:38:00.352Z,12.54
2018-09-27T00:40:29.924Z,12.26
2018-09-27T00:42:59.432Z,12.30
2018-09-27T00:45:28.998Z,12.03
2018-09-27T00:47:58.441Z,11.01
2018-09-27T00:50:27.847Z,11.98
2018-09-27T00:52:57.325Z,12.08
2018-09-27T00:55:26.949Z,12.11
2018-09-27T00:57:56.516Z,12.31
2018-09-27T01:00:25.979Z,12.36
2018-09-27T01:02:56.018Z,12.44
2018-09-27T01:05:25.581Z,12.57
2018-09-27T01:07:54.972Z,12.44
2018-09-27T01:10:24.382Z,12.50
2018-09-27T01:12:54.147Z,12.26
2018-09-27T01:15:23.787Z,12.32
2018-09-27T01:17:53.355Z,12.24
2018-09-27T01:20:22.741Z,12.21
2018-09-27T01:22:52.244Z,12.31
2018-09-27T01:25:21.821Z,12.47
2018-09-27T01:27:51.340Z,12.48
2018-09-27T01:30:20.790Z,12.45
2018-09-27T01:32:50.271Z,12.49
2018-09-27T01:35:19.842Z,12.34
2018-09-27T01:37:49.544Z,12.17
2018-09-27T01:40:19.052Z,11.90
2018-09-27T01:42:48.475Z,12.03
2018-09-27T01:45:17.860Z,12.12
2018-09-27T01:47:47.562Z,12.17
2018-09-27T01:50:17.081Z,12.03
2018-09-27T01:52:46.748Z,12.10
2018-09-27T01:55:16.382Z,12.06
2018-09-27T01:57:46.054Z,12.12
2018-09-27T02:00:15.598Z,12.11
2018-09-27T02:02:45.203Z,12.12
2018-09-27T02:05:14.809Z,12.11
2018-09-27T02:07:44.253Z,12.10
2018-09-27T02:10:13.676Z,12.04
2018-09-27T02:12:43.274Z,12.01
2018-09-27T02:15:12.692Z,11.98
2018-09-27T02:17:42.280Z,11.86
2018-09-27T02:20:12.143Z,11.81
2018-09-27T02:22:41.738Z,11.86
2018-09-27T02:25:11.475Z,11.84
2018-09-27T02:27:40.964Z,11.89
2018-09-27T02:30:10.569Z,11.79
2018-09-27T02:32:40.194Z,11.85
2018-09-27T02:35:09.589Z,11.78
2018-09-27T02:37:39.088Z,11.82
2018-09-27T02:40:09.248Z,11.87
2018-09-27T02:42:38.912Z,11.89
2018-09-27T02:45:08.618Z,11.83
2018-09-27T02:47:38.084Z,11.75
2018-09-27T02:50:07.830Z,11.86
2018-09-27T02:52:37.557Z,11.67
2018-09-27T02:55:07.153Z,11.62
2018-09-27T02:57:36.653Z,11.71
2018-09-27T03:00:06.190Z,11.95
2018-09-27T03:02:36.089Z,11.74
2018-09-27T03:05:06.128Z,11.68
2018-09-27T03:07:36.149Z,11.59
2018-09-27T03:10:05.932Z,11.60
2018-09-27T03:12:35.365Z,11.59
2018-09-27T03:15:05.024Z,11.37
2018-09-27T03:17:34.732Z,11.45
2018-09-27T03:20:04.441Z,11.48
2018-09-27T03:22:34.055Z,11.52
2018-09-27T03:25:03.680Z,11.46
2018-09-27T03:27:33.366Z,11.51
2018-09-27T03:30:02.928Z,11.51
2018-09-27T03:32:32.625Z,11.55
2018-09-27T03:35:02.196Z,11.51
2018-09-27T03:37:31.789Z,11.44
2018-09-27T03:40:01.262Z,11.22
2018-09-27T03:42:30.914Z,11.22
2018-09-27T03:45:00.304Z,11.21
2018-09-27T03:47:30.117Z,11.23
2018-09-27T03:49:59.517Z,11.18
2018-09-27T03:52:29.192Z,11.24
2018-09-27T03:54:58.836Z,11.29
2018-09-27T03:57:28.267Z,11.33
2018-09-27T03:59:58.008Z,11.18
2018-09-27T04:02:27.615Z,11.13
2018-09-27T04:04:57.284Z,11.20
2018-09-27T04:07:26.965Z,11.29
2018-09-27T04:09:56.428Z,11.24
2018-09-27T04:12:25.965Z,11.21
2018-09-27T04:14:55.381Z,11.28
2018-09-27T04:17:24.863Z,11.15
2018-09-27T04:19:54.343Z,11.25
2018-09-27T04:22:23.995Z,11.11
2018-09-27T04:24:53.608Z,11.04
2018-09-27T04:27:23.013Z,11.21
2018-09-27T04:29:52.429Z,11.24
2018-09-27T04:32:21.991Z,11.14
2018-09-27T04:34:51.461Z,11.07
2018-09-27T04:37:21.024Z,11.10
2018-09-27T04:39:50.459Z,11.15
2018-09-27T04:42:20.026Z,11.08
2018-09-27T04:44:49.464Z,11.08
2018-09-27T04:47:18.864Z,11.14
2018-09-27T04:49:48.393Z,10.91
2018-09-27T04:52:17.875Z,10.66
2018-09-27T04:54:47.345Z,10.69
2018-09-27T04:57:17.256Z,10.86
2018-09-27T04:59:46.712Z,10.99
2018-09-27T05:02:16.264Z,10.97
2018-09-27T05:04:45.688Z,11.03
2018-09-27T05:07:15.068Z,11.01
2018-09-27T05:09:44.761Z,11.03
2018-09-27T05:12:14.904Z,10.94
2018-09-27T05:14:44.500Z,10.95
2018-09-27T05:17:14.212Z,10.91
2018-09-27T05:19:43.644Z,10.95
2018-09-27T05:22:13.121Z,10.95
2018-09-27T05:24:42.723Z,11.09
2018-09-27T05:27:12.470Z,10.95
2018-09-27T05:29:41.926Z,11.00
2018-09-27T05:32:11.330Z,10.94
2018-09-27T05:34:40.948Z,10.98
2018-09-27T05:37:10.491Z,11.00
2018-09-27T05:39:40.147Z,11.11
2018-09-27T05:42:09.673Z,11.15
2018-09-27T05:44:39.285Z,11.23
2018-09-27T05:47:08.684Z,11.18
2018-09-27T05:49:38.381Z,11.15
2018-09-27T05:52:08.093Z,11.16
2018-09-27T05:54:37.542Z,11.12
2018-09-27T05:57:07.151Z,11.09
2018-09-27T05:59:36.608Z,11.19
2018-09-27T06:02:06.294Z,11.32
2018-09-27T06:04:35.736Z,11.45
2018-09-27T06:07:05.267Z,11.53
2018-09-27T06:09:34.983Z,11.52
2018-09-27T06:12:04.838Z,11.64
2018-09-27T06:14:34.346Z,11.64
2018-09-27T06:17:03.849Z,11.51
2018-09-27T06:19:33.522Z,11.57
2018-09-27T06:22:02.972Z,11.48
2018-09-27T06:24:32.465Z,11.54
2018-09-27T06:27:01.857Z,11.72
2018-09-27T06:29:31.337Z,11.83
2018-09-27T06:32:00.858Z,11.93
2018-09-27T06:34:30.385Z,11.85
2018-09-27T06:36:59.885Z,11.78
2018-09-27T06:39:29.304Z,11.88
2018-09-27T06:41:58.859Z,11.90
2018-09-27T06:44:28.397Z,12.05
2018-09-27T06:46:57.868Z,12.18
2018-09-27T06:49:27.356Z,12.38
2018-09-27T06:51:56.765Z,12.29
2018-09-27T06:54:26.410Z,12.33
2018-09-27T06:56:56.020Z,12.50
2018-09-27T06:59:25.623Z,12.57
2018-09-27T07:01:55.155Z,12.76
2018-09-27T07:04:24.836Z,12.90
2018-09-27T07:06:54.545Z,12.73
2018-09-27T07:09:24.458Z,12.85
2018-09-27T07:11:54.151Z,12.98
2018-09-27T07:14:23.730Z,13.30
2018-09-27T07:16:53.340Z,13.53
2018-09-27T07:19:22.741Z,13.84
2018-09-27T07:21:52.208Z,13.98
2018-09-27T07:24:21.791Z,13.85
2018-09-27T07:26:51.748Z,14.11
2018-09-27T07:29:21.395Z,14.22
2018-09-27T07:31:51.021Z,14.03
2018-09-27T07:34:20.730Z,13.98
2018-09-27T07:36:50.341Z,14.24
2018-09-27T07:39:20.765Z,14.32
2018-09-27T07:41:50.235Z,14.45
2018-09-27T07:44:19.892Z,14.51
2018-09-27T07:46:49.479Z,14.55
2018-09-27T07:49:18.904Z,14.58
2018-09-27T07:51:48.371Z,14.71
2018-09-27T07:54:18.022Z,14.71
2018-09-27T07:56:47.702Z,14.77
2018-09-27T07:59:17.309Z,14.62
2018-09-27T08:01:46.922Z,14.83
2018-09-27T08:04:16.381Z,15.00
2018-09-27T08:06:45.849Z,14.96
2018-09-27T08:09:15.385Z,15.05
2018-09-27T08:11:45.126Z,15.10
2018-09-27T08:14:14.849Z,15.37
2018-09-27T08:16:44.419Z,15.01
2018-09-27T08:19:14.040Z,15.06
2018-09-27T08:21:43.565Z,15.42
2018-09-27T08:24:13.018Z,15.25
2018-09-27T08:26:42.610Z,15.49
2018-09-27T08:29:12.188Z,16.20
2018-09-27T08:31:41.783Z,17.15
2018-09-27T08:34:11.697Z,18.21
2018-09-27T08:36:41.303Z,19.03
2018-09-27T08:39:12.302Z,19.55
2018-09-27T08:41:41.804Z,20.12
2018-09-27T08:44:12.233Z,20.60
2018-09-27T08:46:42.601Z,20.77
2018-09-27T08:49:12.204Z,20.97
2018-09-27T08:51:41.669Z,21.06
2018-09-27T08:54:11.213Z,21.31
2018-09-27T08:56:40.818Z,21.55
2018-09-27T08:59:10.536Z,21.62
2018-09-27T09:01:40.287Z,21.86
2018-09-27T09:04:09.843Z,21.86
2018-09-27T09:06:39.460Z,21.82
2018-09-27T09:09:11.957Z,21.86
2018-09-27T09:11:41.809Z,21.83
2018-09-27T09:14:12.448Z,21.98
2018-09-27T09:16:41.865Z,22.17
2018-09-27T09:19:11.271Z,22.21
2018-09-27T09:21:40.809Z,22.20
2018-09-27T09:24:10.392Z,22.22
2018-09-27T09:26:39.989Z,22.07
2018-09-27T09:29:09.596Z,22.35
2018-09-27T09:31:39.081Z,22.70
2018-09-27T09:34:08.466Z,23.06
2018-09-27T09:36:37.905Z,23.34
2018-09-27T09:39:08.659Z,23.12
2018-09-27T09:41:38.448Z,23.33
2018-09-27T09:44:08.057Z,23.32
2018-09-27T09:46:37.559Z,23.19
2018-09-27T09:49:07.268Z,23.06
2018-09-27T09:51:36.776Z,23.18
2018-09-27T09:54:06.411Z,23.30
2018-09-27T09:56:35.796Z,23.40
2018-09-27T09:59:05.285Z,23.46
2018-09-27T10:01:34.701Z,23.04
2018-09-27T10:04:04.200Z,23.24
2018-09-27T10:06:34.181Z,23.41
2018-09-27T10:09:04.106Z,23.42
2018-09-27T10:11:33.576Z,23.45
2018-09-27T10:14:03.168Z,23.28
2018-09-27T10:16:32.680Z,23.70
2018-09-27T10:19:02.080Z,23.70
2018-09-27T10:21:31.712Z,24.03
2018-09-27T10:24:01.462Z,23.82
2018-09-27T10:26:30.868Z,24.08
2018-09-27T10:29:00.272Z,24.08
2018-09-27T10:31:29.969Z,24.14
2018-09-27T10:33:59.653Z,24.64
2018-09-27T10:36:29.052Z,24.51
2018-09-27T10:38:58.890Z,24.28
2018-09-27T10:41:28.750Z,24.42
2018-09-27T10:43:58.411Z,24.65
2018-09-27T10:46:28.023Z,24.78
2018-09-27T10:48:57.486Z,25.00
2018-09-27T10:51:27.090Z,24.87
2018-09-27T10:53:56.836Z,24.63
2018-09-27T10:56:26.301Z,24.71
2018-09-27T10:58:55.843Z,24.50
2018-09-27T11:01:25.212Z,24.67
2018-09-27T11:03:54.674Z,24.69
2018-09-27T11:06:24.256Z,24.74
2018-09-27T11:08:53.701Z,24.80
2018-09-27T11:11:23.551Z,24.88
2018-09-27T11:13:53.005Z,24.97
2018-09-27T11:16:22.583Z,25.10
2018-09-27T11:18:52.128Z,25.39
2018-09-27T11:21:21.689Z,25.29
2018-09-27T11:23:51.195Z,25.28
2018-09-27T11:26:22.258Z,25.25
2018-09-27T11:28:57.170Z,25.11
2018-09-27T11:31:31.995Z,25.15
2018-09-27T11:34:01.704Z,25.36
2018-09-27T11:36:31.204Z,25.39
2018-09-27T11:39:00.816Z,25.55
2018-09-27T11:41:30.525Z,25.47
2018-09-27T11:44:00.151Z,25.19
2018-09-27T11:46:29.748Z,25.49
2018-09-27T11:48:59.425Z,25.61
2018-09-27T11:51:28.849Z,25.77
2018-09-27T11:53:58.666Z,25.75
2018-09-27T11:56:28.072Z,25.71
2018-09-27T11:58:57.727Z,25.93
2018-09-27T12:01:27.406Z,25.75
2018-09-27T12:03:56.784Z,26.08
2018-09-27T12:06:26.659Z,25.96
2018-09-27T12:08:56.089Z,26.03
2018-09-27T12:11:25.805Z,25.99
2018-09-27T12:13:55.514Z,26.01
2018-09-27T12:16:25.031Z,26.05
2018-09-27T12:18:54.459Z,26.17
2018-09-27T12:21:24.129Z,26.44
2018-09-27T12:23:53.582Z,25.96
2018-09-27T12:26:23.140Z,26.37
2018-09-27T12:28:52.597Z,26.70
2018-09-27T12:31:22.256Z,26.41
2018-09-27T12:33:52.031Z,26.17
2018-09-27T12:36:21.571Z,26.24
2018-09-27T12:38:51.462Z,26.25
2018-09-27T12:41:21.085Z,26.09
2018-09-27T12:43:50.767Z,26.19
2018-09-27T12:46:20.391Z,26.46
2018-09-27T12:48:50.023Z,26.31
2018-09-27T12:51:19.899Z,26.11
2018-09-27T12:53:49.152Z,26.32
2018-09-27T12:56:18.735Z,26.23
2018-09-27T12:58:48.353Z,26.13
2018-09-27T13:01:18.076Z,26.23
2018-09-27T13:03:47.529Z,25.85
2018-09-27T13:06:17.255Z,25.94
2018-09-27T13:08:47.084Z,26.22
2018-09-27T13:11:16.583Z,26.37
2018-09-27T13:13:45.995Z,26.06
2018-09-27T13:16:15.579Z,26.26
2018-09-27T13:18:45.289Z,26.34
2018-09-27T13:21:14.999Z,26.67
2018-09-27T13:23:44.604Z,26.75
2018-09-27T13:26:14.023Z,27.10
2018-09-27T13:28:43.929Z,27.10
2018-09-27T13:31:13.288Z,26.86
2018-09-27T13:33:42.739Z,26.45
2018-09-27T13:36:12.432Z,26.84
2018-09-27T13:38:42.039Z,26.88
2018-09-27T13:41:11.575Z,26.87
2018-09-27T13:43:40.994Z,27.07
2018-09-27T13:46:10.885Z,27.30
2018-09-27T13:48:40.569Z,27.55
2018-09-27T13:51:10.038Z,27.56
2018-09-27T13:53:39.477Z,27.35
2018-09-27T13:56:09.131Z,27.32
2018-09-27T13:58:38.512Z,26.96
2018-09-27T14:01:08.260Z,26.75
2018-09-27T14:03:37.701Z,26.90
2018-09-27T14:06:06.932Z,27.49
2018-09-27T14:08:36.917Z,27.50
2018-09-27T14:11:06.736Z,27.36
2018-09-27T14:13:36.151Z,27.37
2018-09-27T14:16:05.887Z,27.53
2018-09-27T14:18:35.442Z,27.49
2018-09-27T14:21:04.947Z,27.18
2018-09-27T14:23:34.332Z,27.42
2018-09-27T14:26:03.989Z,27.32
2018-09-27T14:28:33.416Z,27.37
2018-09-27T14:31:03.065Z,27.27
2018-09-27T14:33:32.784Z,27.18
2018-09-27T14:36:02.428Z,26.63
2018-09-27T14:38:32.141Z,27.09
2018-09-27T14:41:01.887Z,27.05
2018-09-27T14:43:31.312Z,26.79
2018-09-27T14:46:00.751Z,26.91
2018-09-27T14:48:30.224Z,27.32
2018-09-27T14:50:59.664Z,27.04
2018-09-27T14:53:29.330Z,27.24
2018-09-27T14:55:58.976Z,27.07
2018-09-27T14:58:28.580Z,27.12
2018-09-27T15:00:58.712Z,27.21
2018-09-27T15:03:28.335Z,27.24
2018-09-27T15:05:58.076Z,27.28
2018-09-27T15:08:27.639Z,27.06
2018-09-27T15:10:57.605Z,26.86
2018-09-27T15:13:27.200Z,26.62
2018-09-27T15:15:56.805Z,26.63
2018-09-27T15:18:26.421Z,26.57
2018-09-27T15:20:56.022Z,26.65
2018-09-27T15:23:25.632Z,26.80
2018-09-27T15:25:55.481Z,26.84
2018-09-27T15:28:25.011Z,26.51
2018-09-27T15:30:54.449Z,26.42
2018-09-27T15:33:23.896Z,26.54
2018-09-27T15:35:53.457Z,26.40
2018-09-27T15:38:22.908Z,26.46
2018-09-27T15:40:52.569Z,26.32
2018-09-27T15:43:22.077Z,26.47
2018-09-27T15:45:51.807Z,26.29
2018-09-27T15:48:21.594Z,26.15
2018-09-27T15:50:51.116Z,26.08
2018-09-27T15:53:20.808Z,26.16
2018-09-27T15:55:50.415Z,26.05
2018-09-27T15:58:20.125Z,25.92
2018-09-27T16:00:49.680Z,25.52
2018-09-27T16:03:19.384Z,25.63
2018-09-27T16:05:49.047Z,25.69
2018-09-27T16:08:18.872Z,25.74
2018-09-27T16:10:54.150Z,25.60
2018-09-27T16:13:23.806Z,25.59
2018-09-27T16:15:53.618Z,25.50
2018-09-27T16:18:23.475Z,25.40
2018-09-27T16:20:53.036Z,25.36
2018-09-27T16:23:22.544Z,25.09
2018-09-27T16:25:51.987Z,25.00
2018-09-27T16:28:21.456Z,24.82
2018-09-27T16:30:51.359Z,24.58
2018-09-27T16:33:20.853Z,24.41
2018-09-27T16:35:50.284Z,24.19
2018-09-27T16:38:19.975Z,23.95
2018-09-27T16:40:49.429Z,23.77
2018-09-27T16:43:18.932Z,23.62
2018-09-27T16:45:48.592Z,23.50
2018-09-27T16:48:18.202Z,23.40
2018-09-27T16:50:47.707Z,23.20
2018-09-27T16:53:17.168Z,22.96
2018-09-27T16:55:46.575Z,22.73
2018-09-27T16:58:16.044Z,22.73
2018-09-27T17:00:45.620Z,22.57
2018-09-27T17:03:15.104Z,22.33
2018-09-27T17:05:44.588Z,22.14
2018-09-27T17:08:14.044Z,22.04
2018-09-27T17:10:43.448Z,21.88
2018-09-27T17:13:13.495Z,21.84
2018-09-27T17:15:42.904Z,21.66
2018-09-27T17:18:12.504Z,21.53
2018-09-27T17:20:42.375Z,21.22
2018-09-27T17:23:12.031Z,21.09
2018-09-27T17:25:41.491Z,20.92
2018-09-27T17:28:11.052Z,20.54
2018-09-27T17:30:40.597Z,20.55
2018-09-27T17:33:10.243Z,20.39
2018-09-27T17:35:39.689Z,20.47
2018-09-27T17:38:09.135Z,20.49
2018-09-27T17:40:38.609Z,20.46
2018-09-27T17:43:08.046Z,20.37
2018-09-27T17:45:37.623Z,20.38
2018-09-27T17:48:07.272Z,20.23
2018-09-27T17:50:36.913Z,20.21
2018-09-27T17:53:06.594Z,20.04
2018-09-27T17:55:36.370Z,20.06
2018-09-27T17:58:06.369Z,20.03
2018-09-27T18:00:36.028Z,19.98
2018-09-27T18:03:05.668Z,19.96
2018-09-27T18:05:35.113Z,19.90
2018-09-27T18:08:04.673Z,19.91
2018-09-27T18:10:34.173Z,19.79
2018-09-27T18:13:03.808Z,19.81
2018-09-27T18:15:33.415Z,19.71
2018-09-27T18:18:03.106Z,19.50
2018-09-27T18:20:32.728Z,19.40
2018-09-27T18:23:02.438Z,19.33
2018-09-27T18:25:31.987Z,19.37
2018-09-27T18:28:01.494Z,19.30
2018-09-27T18:30:31.260Z,19.07
2018-09-27T18:33:00.967Z,19.00
2018-09-27T18:35:30.362Z,18.88
2018-09-27T18:37:59.995Z,18.71
2018-09-27T18:40:29.421Z,18.66
2018-09-27T18:42:59.025Z,18.56
2018-09-27T18:45:28.715Z,18.40
2018-09-27T18:47:58.371Z,18.24
2018-09-27T18:50:28.030Z,18.23
2018-09-27T18:52:57.736Z,18.19
2018-09-27T18:55:27.631Z,17.95
2018-09-27T18:57:57.649Z,17.86
2018-09-27T19:00:27.360Z,17.64
2018-09-27T19:02:57.643Z,17.67
2018-09-27T19:05:27.352Z,17.68
2018-09-27T19:07:57.176Z,17.64
2018-09-27T19:10:26.921Z,17.52
2018-09-27T19:12:56.608Z,17.36
2018-09-27T19:15:26.228Z,17.28
2018-09-27T19:17:55.950Z,17.19
2018-09-27T19:20:25.443Z,17.05
2018-09-27T19:22:55.254Z,16.92
2018-09-27T19:25:24.740Z,16.78
2018-09-27T19:27:54.678Z,16.71
2018-09-27T19:30:24.476Z,16.71
2018-09-27T19:32:54.169Z,16.57
2018-09-27T19:35:23.712Z,16.51
2018-09-27T19:37:53.366Z,16.29
2018-09-27T19:40:22.949Z,16.10
2018-09-27T19:42:52.722Z,16.07
2018-09-27T19:45:22.366Z,16.01
2018-09-27T19:47:52.545Z,15.93
2018-09-27T19:50:22.252Z,16.00
2018-09-27T19:52:51.940Z,15.99
2018-09-27T19:55:22.232Z,16.01
2018-09-27T19:57:52.108Z,15.99
2018-09-27T20:00:29.661Z,16.04
2018-09-27T20:03:01.565Z,16.10
2018-09-27T20:05:31.315Z,16.07
